Time;durP1;ratioP1;P1;durP2;ratioP2;P2;SDS_P1;SDS_P2;PMS_P1;PMS_P2;Temp;Humidity;BMP_temperature;BMP_pressure;BME280_temperature;BME280_humidity;BME280_pressure;Samples;Min_cycle;Max_cycle;Signal;HPM_P1;HPM_P2
2023/05/25 00:00:41;;;;;;;8.43;4.50;;;23.10;76.70;;;;;;6246310;23;20007;-77
2023/05/25 00:03:08;;;;;;;4.75;3.70;;;23.10;76.80;;;;;;6246390;23;20012;-77
2023/05/25 00:05:34;;;;;;;3.53;3.17;;;23.00;76.70;;;;;;6246854;23;20006;-81
2023/05/25 00:08:00;;;;;;;4.43;3.70;;;23.00;76.80;;;;;;6247615;23;20011;-77
2023/05/25 00:10:26;;;;;;;5.20;3.75;;;22.90;76.70;;;;;;6245838;23;20000;-76
2023/05/25 00:12:54;;;;;;;5.60;3.47;;;22.90;76.90;;;;;;6245746;23;20078;-77
2023/05/25 00:15:20;;;;;;;5.85;4.40;;;23.00;77.10;;;;;;6246263;23;20000;-76
2023/05/25 00:17:47;;;;;;;5.78;3.50;;;23.00;76.90;;;;;;6246223;23;20004;-76
2023/05/25 00:20:13;;;;;;;5.25;4.00;;;23.00;77.00;;;;;;6246628;23;20004;-76
2023/05/25 00:22:43;;;;;;;4.07;3.15;;;23.00;76.40;;;;;;6246602;23;20046;-76
2023/05/25 00:25:09;;;;;;;5.18;3.20;;;23.00;76.30;;;;;;6246395;23;20019;-76
2023/05/25 00:27:35;;;;;;;3.65;3.10;;;23.10;76.50;;;;;;6241176;23;20004;-77
2023/05/25 00:30:00;;;;;;;4.13;3.42;;;23.10;76.20;;;;;;6242530;23;20024;-77
2023/05/25 00:32:26;;;;;;;4.40;3.30;;;23.10;76.10;;;;;;6244043;23;20004;-77
2023/05/25 00:34:53;;;;;;;3.80;2.90;;;23.10;76.00;;;;;;6242373;23;20004;-77
2023/05/25 00:37:19;;;;;;;4.82;3.10;;;23.00;76.10;;;;;;6241651;23;20781;-77
2023/05/25 00:39:45;;;;;;;4.72;3.20;;;23.10;76.30;;;;;;6241687;23;20000;-77
2023/05/25 00:42:10;;;;;;;4.55;3.70;;;23.10;76.30;;;;;;6241730;23;20004;-77
2023/05/25 00:44:36;;;;;;;3.83;3.05;;;23.10;76.10;;;;;;6244502;23;20028;-77
2023/05/25 00:47:03;;;;;;;4.95;3.70;;;23.00;76.00;;;;;;6241275;23;20000;-77
2023/05/25 00:49:32;;;;;;;3.70;3.13;;;23.10;76.10;;;;;;6241024;23;20019;-77
2023/05/25 00:51:58;;;;;;;3.95;3.42;;;23.10;76.20;;;;;;6241247;23;20418;-77
2023/05/25 00:54:24;;;;;;;3.60;3.15;;;23.10;76.50;;;;;;6242596;23;20011;-77
2023/05/25 00:56:52;;;;;;;6.35;4.05;;;23.00;76.50;;;;;;6245768;23;20004;-76
2023/05/25 00:59:27;;;;;;;4.40;3.45;;;23.00;76.60;;;;;;6245103;23;20050;-77
2023/05/25 01:01:54;;;;;;;4.63;3.05;;;22.90;76.40;;;;;;6243868;23;20000;-77
2023/05/25 01:04:20;;;;;;;4.75;3.45;;;22.90;76.50;;;;;;6245114;23;20516;-76
2023/05/25 01:06:47;;;;;;;3.92;3.28;;;22.90;77.10;;;;;;6245640;23;20079;-76
2023/05/25 01:09:16;;;;;;;5.25;3.58;;;22.90;76.70;;;;;;6245052;23;20014;-77
2023/05/25 01:11:44;;;;;;;4.20;3.00;;;22.90;76.90;;;;;;6245897;23;20080;-77
2023/05/25 01:14:10;;;;;;;5.03;3.40;;;23.00;76.90;;;;;;6244056;23;20375;-77
2023/05/25 01:16:36;;;;;;;4.15;3.17;;;22.90;76.70;;;;;;6245189;23;20051;-77
2023/05/25 01:19:03;;;;;;;5.65;3.38;;;22.90;76.70;;;;;;6245587;23;19996;-77
2023/05/25 01:21:36;;;;;;;6.00;3.50;;;22.90;76.60;;;;;;6243967;23;19996;-77
2023/05/25 01:24:16;;;;;;;4.13;3.25;;;22.90;76.60;;;;;;6246125;23;20000;-77
2023/05/25 01:26:47;;;;;;;3.45;2.72;;;22.80;76.60;;;;;;6244935;23;20012;-77
2023/05/25 01:29:16;;;;;;;4.97;3.33;;;22.80;76.70;;;;;;6244103;23;20023;-77
2023/05/25 01:31:43;;;;;;;4.25;3.05;;;22.70;76.50;;;;;;6242179;23;20071;-77
2023/05/25 01:34:09;;;;;;;4.95;3.08;;;22.70;76.60;;;;;;6218445;23;20008;-77
2023/05/25 01:36:35;;;;;;;5.47;3.13;;;22.70;76.50;;;;;;6243036;23;20015;-77
2023/05/25 01:39:01;;;;;;;3.55;3.08;;;22.70;76.40;;;;;;6217531;23;20095;-77
2023/05/25 01:41:27;;;;;;;5.13;3.05;;;22.70;76.40;;;;;;6242523;23;20027;-77
2023/05/25 01:43:52;;;;;;;9.35;3.47;;;22.70;76.50;;;;;;6243627;23;20046;-77
2023/05/25 01:46:34;;;;;;;4.32;3.33;;;22.70;76.50;;;;;;6244155;23;20027;-78
2023/05/25 01:49:18;;;;;;;4.10;2.90;;;22.70;76.30;;;;;;6245055;23;20000;-78
2023/05/25 01:52:25;;;;;;;4.15;3.20;;;22.70;76.30;;;;;;6246154;23;20308;-78
2023/05/25 01:54:56;;;;;;;6.38;3.05;;;22.70;76.60;;;;;;6244258;23;20322;-77
2023/05/25 01:57:23;;;;;;;4.20;2.85;;;22.60;76.30;;;;;;6244119;23;20018;-77
2023/05/25 01:59:51;;;;;;;4.20;2.83;;;22.60;76.20;;;;;;6218831;23;20339;-77
2023/05/25 02:02:18;;;;;;;3.35;3.05;;;22.60;76.10;;;;;;6248934;23;20003;-77
2023/05/25 02:04:45;;;;;;;4.90;3.58;;;22.60;76.00;;;;;;6248990;23;20415;-77
2023/05/25 02:07:10;;;;;;;5.28;2.97;;;22.60;75.90;;;;;;6247918;23;20008;-76
2023/05/25 02:09:36;;;;;;;5.60;3.25;;;22.50;75.90;;;;;;6248314;23;20004;-77
2023/05/25 02:12:02;;;;;;;5.63;3.63;;;22.60;75.90;;;;;;6246603;23;20014;-77
2023/05/25 02:14:28;;;;;;;5.95;2.88;;;22.50;76.30;;;;;;6247718;23;20000;-77
2023/05/25 02:16:54;;;;;;;3.50;2.70;;;22.50;76.20;;;;;;6248200;23;20054;-77
2023/05/25 02:19:20;;;;;;;4.03;3.17;;;22.50;76.30;;;;;;6248540;23;19996;-76
2023/05/25 02:21:45;;;;;;;2.97;2.65;;;22.50;76.30;;;;;;6248382;23;20370;-77
2023/05/25 02:24:11;;;;;;;5.00;2.92;;;22.50;76.40;;;;;;6248689;23;20008;-77
2023/05/25 02:26:38;;;;;;;3.90;3.03;;;22.50;76.40;;;;;;6248350;23;20000;-77
2023/05/25 02:29:04;;;;;;;4.63;3.38;;;22.50;76.40;;;;;;6247785;23;20068;-77
2023/05/25 02:31:30;;;;;;;7.28;2.85;;;22.40;76.30;;;;;;6246922;23;20012;-76
2023/05/25 02:33:56;;;;;;;4.38;2.72;;;22.40;76.30;;;;;;6244829;23;20353;-76
2023/05/25 02:36:22;;;;;;;4.20;2.58;;;22.40;76.50;;;;;;6244238;23;20079;-76
2023/05/25 02:38:48;;;;;;;3.75;2.78;;;22.40;76.20;;;;;;6246350;23;20397;-77
2023/05/25 02:41:19;;;;;;;6.15;3.60;;;22.40;76.20;;;;;;6247664;23;20309;-77
2023/05/25 02:43:44;;;;;;;4.28;2.85;;;22.40;76.40;;;;;;6243813;23;20011;-76
2023/05/25 02:46:10;;;;;;;5.35;3.20;;;22.40;76.50;;;;;;6244504;23;20750;-76
2023/05/25 02:48:36;;;;;;;5.57;2.70;;;22.30;77.00;;;;;;6248289;23;20031;-76
2023/05/25 02:51:02;;;;;;;4.30;2.55;;;22.20;76.40;;;;;;6219608;23;20010;-76
2023/05/25 02:53:28;;;;;;;3.65;3.20;;;22.20;76.30;;;;;;6247218;23;20122;-76
2023/05/25 02:55:55;;;;;;;3.47;2.60;;;22.20;76.70;;;;;;6243181;23;20004;-77
2023/05/25 02:58:21;;;;;;;3.50;2.88;;;22.20;76.50;;;;;;6245583;23;20464;-76
2023/05/25 03:00:47;;;;;;;4.18;2.65;;;22.20;76.50;;;;;;6244303;23;20730;-76
2023/05/25 03:03:12;;;;;;;3.00;2.50;;;22.10;76.30;;;;;;6245501;23;20000;-76
2023/05/25 03:05:38;;;;;;;3.72;2.80;;;22.10;76.30;;;;;;6243754;23;20004;-77
2023/05/25 03:08:04;;;;;;;3.42;2.67;;;22.10;76.60;;;;;;6242338;23;20075;-76
2023/05/25 03:10:30;;;;;;;5.03;2.80;;;22.10;76.50;;;;;;6242421;23;20001;-77
2023/05/25 03:12:55;;;;;;;2.97;2.58;;;22.20;76.80;;;;;;6242641;23;20003;-76
2023/05/25 03:15:21;;;;;;;3.38;2.85;;;22.20;76.60;;;;;;6242406;23;20001;-76
2023/05/25 03:17:48;;;;;;;7.28;2.70;;;22.20;76.60;;;;;;6242594;23;20501;-76
2023/05/25 03:20:15;;;;;;;3.53;2.70;;;22.10;76.40;;;;;;6218022;23;20027;-77
2023/05/25 03:22:42;;;;;;;4.10;2.70;;;22.10;76.30;;;;;;6243161;23;20000;-76
2023/05/25 03:25:11;;;;;;;4.10;2.63;;;22.10;76.10;;;;;;6215776;23;20000;-76
2023/05/25 03:27:37;;;;;;;3.63;2.75;;;22.10;76.10;;;;;;6242267;23;20008;-77
2023/05/25 03:30:03;;;;;;;3.30;2.25;;;22.10;75.90;;;;;;6241922;23;20456;-76
2023/05/25 03:32:29;;;;;;;3.53;2.20;;;22.00;75.90;;;;;;6242304;23;20069;-76
2023/05/25 03:34:55;;;;;;;3.10;2.25;;;22.00;76.00;;;;;;6242449;23;20426;-77
2023/05/25 03:37:20;;;;;;;4.88;2.40;;;22.00;75.80;;;;;;6242419;23;20434;-76
2023/05/25 03:39:46;;;;;;;3.08;2.40;;;22.00;76.00;;;;;;6242294;23;20107;-76
2023/05/25 03:42:11;;;;;;;2.63;2.15;;;22.00;75.90;;;;;;6241470;23;20004;-76
2023/05/25 03:44:37;;;;;;;2.45;2.25;;;22.00;75.70;;;;;;6241596;23;19996;-76
2023/05/25 03:47:03;;;;;;;2.58;2.28;;;22.00;75.90;;;;;;6242156;23;20122;-76
2023/05/25 03:49:28;;;;;;;2.10;1.90;;;22.00;76.00;;;;;;6242434;23;20079;-76
2023/05/25 03:51:54;;;;;;;3.72;2.05;;;21.90;75.90;;;;;;6215677;23;20008;-76
2023/05/25 03:54:20;;;;;;;2.97;2.05;;;21.90;76.00;;;;;;6242637;23;20007;-76
2023/05/25 03:56:45;;;;;;;1.95;1.75;;;21.90;76.20;;;;;;6243018;23;20054;-76
2023/05/25 03:59:11;;;;;;;3.03;1.95;;;21.90;76.10;;;;;;6242427;23;20050;-76
2023/05/25 04:01:37;;;;;;;2.15;1.95;;;21.90;76.20;;;;;;6246127;23;20437;-76
2023/05/25 04:04:04;;;;;;;3.08;2.10;;;21.80;76.10;;;;;;6245684;23;19996;-77
2023/05/25 04:06:29;;;;;;;2.65;2.30;;;21.80;76.20;;;;;;6245228;23;20170;-76
2023/05/25 04:08:56;;;;;;;2.63;1.90;;;21.90;76.20;;;;;;6245824;23;20044;-76
2023/05/25 04:11:24;;;;;;;2.63;1.90;;;21.80;76.10;;;;;;6246165;23;20008;-76
2023/05/25 04:13:49;;;;;;;3.25;1.80;;;21.80;76.10;;;;;;6244933;23;20011;-77
2023/05/25 04:16:15;;;;;;;2.35;2.15;;;21.80;76.00;;;;;;6246007;23;20004;-82
2023/05/25 04:18:41;;;;;;;4.35;1.85;;;21.80;76.50;;;;;;6245897;23;20071;-82
2023/05/25 04:21:06;;;;;;;2.90;1.50;;;21.80;76.30;;;;;;6219939;23;20031;-81
2023/05/25 04:23:32;;;;;;;1.83;1.60;;;21.80;76.20;;;;;;6245983;23;20622;-82
2023/05/25 04:25:59;;;;;;;6.00;2.30;;;21.80;76.10;;;;;;6246087;23;20004;-80
2023/05/25 04:28:26;;;;;;;3.50;1.80;;;21.80;76.10;;;;;;6245310;23;19996;-81
2023/05/25 04:30:58;;;;;;;3.40;1.85;;;21.80;76.00;;;;;;6242774;23;20349;-82
2023/05/25 04:33:28;;;;;;;2.92;2.20;;;21.80;75.90;;;;;;6244575;23;20002;-82
2023/05/25 04:35:57;;;;;;;4.97;1.70;;;21.90;75.90;;;;;;6218515;23;20062;-82
2023/05/25 04:38:24;;;;;;;5.15;1.90;;;21.80;76.00;;;;;;6245892;23;20000;-83
2023/05/25 04:40:50;;;;;;;2.13;1.80;;;21.90;76.00;;;;;;6245191;23;20000;-82
2023/05/25 04:43:17;;;;;;;2.17;1.98;;;21.90;75.90;;;;;;6245939;23;19997;-82
2023/05/25 04:45:44;;;;;;;2.60;1.70;;;22.00;75.90;;;;;;6245048;23;19996;-81
2023/05/25 04:48:11;;;;;;;4.57;2.25;;;22.00;75.80;;;;;;6245667;23;20035;-82
2023/05/25 04:50:43;;;;;;;3.22;2.05;;;22.00;75.70;;;;;;6245782;23;20374;-84
2023/05/25 04:53:09;;;;;;;2.20;2.00;;;22.10;75.80;;;;;;6246011;23;19996;-84
2023/05/25 04:55:35;;;;;;;2.85;1.90;;;22.10;75.70;;;;;;6245781;23;20058;-83
2023/05/25 04:58:01;;;;;;;2.33;2.00;;;22.10;75.50;;;;;;6244709;23;20008;-83
2023/05/25 05:00:29;;;;;;;2.67;2.08;;;22.10;75.30;;;;;;6244647;23;20001;-84
2023/05/25 05:02:55;;;;;;;3.28;2.20;;;22.10;75.30;;;;;;6245227;23;20000;-81
2023/05/25 05:05:21;;;;;;;4.32;2.45;;;22.10;75.40;;;;;;6219027;23;20315;-82
2023/05/25 05:07:47;;;;;;;2.88;2.22;;;22.10;75.20;;;;;;6245890;23;20011;-82
2023/05/25 05:10:12;;;;;;;4.15;2.83;;;22.10;75.30;;;;;;6245865;23;20008;-81
2023/05/25 05:12:38;;;;;;;4.30;2.10;;;22.10;76.00;;;;;;6245081;23;20000;-81
2023/05/25 05:15:04;;;;;;;3.33;2.20;;;22.20;75.50;;;;;;6245429;23;20310;-81
2023/05/25 05:17:30;;;;;;;4.38;1.98;;;22.20;75.50;;;;;;6240729;23;20008;-82
2023/05/25 05:19:56;;;;;;;2.65;2.13;;;22.20;75.40;;;;;;6243407;22;20079;-81
2023/05/25 05:22:21;;;;;;;3.95;2.50;;;22.20;75.50;;;;;;6244215;23;20004;-81
2023/05/25 05:24:47;;;;;;;3.72;2.30;;;22.20;75.50;;;;;;6243461;23;20330;-80
2023/05/25 05:27:15;;;;;;;2.42;2.05;;;22.20;75.50;;;;;;6244924;23;20445;-81
2023/05/25 05:29:41;;;;;;;3.35;2.33;;;22.30;75.30;;;;;;6216481;23;20019;-86
2023/05/25 05:32:07;;;;;;;7.15;3.38;;;22.30;75.60;;;;;;6244336;23;20000;-82
2023/05/25 05:34:33;;;;;;;2.10;1.88;;;22.30;75.50;;;;;;6245808;23;20012;-77
2023/05/25 05:36:59;;;;;;;3.50;2.22;;;22.40;75.30;;;;;;6245370;23;20004;-77
2023/05/25 05:39:26;;;;;;;4.55;2.60;;;22.40;75.40;;;;;;6244892;23;19996;-77
2023/05/25 05:41:51;;;;;;;3.83;2.28;;;22.50;75.40;;;;;;6243910;23;20008;-77
2023/05/25 05:44:20;;;;;;;2.25;1.80;;;22.50;75.40;;;;;;6245980;23;20426;-77
2023/05/25 05:46:45;;;;;;;3.35;1.88;;;22.50;75.10;;;;;;6244765;23;20439;-78
2023/05/25 05:49:11;;;;;;;2.05;1.58;;;22.60;74.90;;;;;;6245358;23;20008;-78
2023/05/25 05:51:37;;;;;;;2.47;2.10;;;22.60;75.20;;;;;;6245281;23;20047;-79
2023/05/25 05:54:03;;;;;;;6.60;2.00;;;22.70;75.00;;;;;;6245541;23;20008;-79
2023/05/25 05:56:28;;;;;;;3.72;2.15;;;22.70;75.20;;;;;;6244795;23;20445;-79
2023/05/25 05:58:54;;;;;;;3.33;2.10;;;22.80;75.10;;;;;;6245419;23;19996;-78
2023/05/25 06:01:21;;;;;;;2.40;1.83;;;22.90;74.80;;;;;;6243547;23;20000;-78
2023/05/25 06:03:47;;;;;;;3.60;2.17;;;23.00;74.70;;;;;;6245421;23;20004;-78
2023/05/25 06:06:13;;;;;;;2.78;2.20;;;23.10;74.40;;;;;;6245448;23;20142;-78
2023/05/25 06:08:42;;;;;;;2.17;1.98;;;23.10;74.10;;;;;;6245633;23;20415;-78
2023/05/25 06:11:08;;;;;;;3.30;2.03;;;23.20;74.50;;;;;;6245091;23;20000;-79
2023/05/25 06:13:33;;;;;;;2.83;2.10;;;23.20;73.60;;;;;;6245289;23;20362;-79
2023/05/25 06:15:59;;;;;;;3.15;2.13;;;23.30;73.50;;;;;;6245628;23;20000;-79
2023/05/25 06:18:25;;;;;;;4.20;2.15;;;23.30;73.80;;;;;;6245396;23;20003;-79
2023/05/25 06:20:50;;;;;;;4.43;2.38;;;23.40;73.00;;;;;;6246116;23;20000;-79
2023/05/25 06:23:17;;;;;;;3.67;2.20;;;23.40;72.40;;;;;;6245651;23;20067;-79
2023/05/25 06:25:43;;;;;;;11.65;3.42;;;23.40;72.70;;;;;;6246715;23;20000;-79
2023/05/25 06:28:09;;;;;;;2.67;2.15;;;23.40;72.20;;;;;;6246176;23;20000;-79
2023/05/25 06:30:35;;;;;;;3.00;1.92;;;23.40;72.30;;;;;;6247244;23;20505;-81
2023/05/25 06:33:01;;;;;;;2.22;1.77;;;23.50;72.30;;;;;;6246027;23;20000;-80
2023/05/25 06:35:27;;;;;;;3.63;2.08;;;23.50;71.60;;;;;;6219933;23;20011;-80
2023/05/25 06:37:52;;;;;;;2.35;1.90;;;23.50;71.70;;;;;;6247429;23;20000;-79
2023/05/25 06:40:18;;;;;;;2.08;1.90;;;23.50;71.10;;;;;;6220589;23;20083;-86
2023/05/25 06:42:44;;;;;;;3.67;1.88;;;23.50;71.40;;;;;;6246557;23;20083;-86
2023/05/25 06:45:18;;;;;;;5.40;2.60;;;23.60;71.10;;;;;;6247151;23;20027;-86
2023/05/25 06:47:44;;;;;;;4.30;1.98;;;23.60;70.80;;;;;;6247568;23;20000;-85
2023/05/25 06:50:11;;;;;;;3.17;2.38;;;23.60;71.00;;;;;;6247269;23;20011;-86
2023/05/25 06:52:36;;;;;;;4.47;2.22;;;23.60;71.00;;;;;;6246978;23;20046;-86
2023/05/25 06:55:02;;;;;;;2.65;1.95;;;23.60;71.10;;;;;;6244660;23;20079;-86
2023/05/25 06:57:28;;;;;;;3.92;2.00;;;23.70;70.90;;;;;;6247586;23;20011;-86
2023/05/25 06:59:54;;;;;;;2.63;2.30;;;23.70;70.70;;;;;;6247765;23;20004;-85
2023/05/25 07:02:20;;;;;;;2.25;1.90;;;23.70;69.50;;;;;;6247706;23;20000;-86
2023/05/25 07:04:45;;;;;;;2.13;1.92;;;23.80;70.30;;;;;;6245605;23;20372;-86
2023/05/25 07:07:12;;;;;;;6.68;1.95;;;23.80;70.00;;;;;;6246632;23;20030;-86
2023/05/25 07:09:38;;;;;;;4.60;2.67;;;23.90;69.90;;;;;;6244285;23;20083;-86
2023/05/25 07:12:09;;;;;;;3.20;2.17;;;24.00;69.90;;;;;;6247568;23;20028;-86
2023/05/25 07:14:36;;;;;;;2.50;2.05;;;24.00;70.30;;;;;;6246742;23;20004;-86
2023/05/25 07:17:02;;;;;;;2.58;2.00;;;24.00;70.60;;;;;;6246726;23;20008;-86
2023/05/25 07:19:27;;;;;;;4.10;2.22;;;24.00;70.70;;;;;;6247232;23;20407;-86
2023/05/25 07:21:53;;;;;;;2.28;2.00;;;24.00;70.70;;;;;;6247312;23;20000;-86
2023/05/25 07:24:19;;;;;;;2.10;1.77;;;24.00;70.70;;;;;;6246477;23;20007;-86
2023/05/25 07:26:44;;;;;;;3.38;2.33;;;24.00;71.10;;;;;;6246237;23;20422;-85
2023/05/25 07:29:11;;;;;;;2.88;2.08;;;24.00;68.60;;;;;;6243322;23;20411;-85
2023/05/25 07:31:37;;;;;;;3.30;2.08;;;23.90;69.30;;;;;;6247511;23;20078;-79
2023/05/25 07:34:05;;;;;;;3.95;1.90;;;23.80;69.10;;;;;;6247047;23;20038;-79
2023/05/25 07:36:31;;;;;;;5.30;2.60;;;23.80;69.70;;;;;;6246113;23;20039;-80
2023/05/25 07:38:57;;;;;;;6.32;2.45;;;23.80;70.20;;;;;;6246128;23;20001;-80
2023/05/25 07:41:23;;;;;;;2.78;1.95;;;23.80;69.00;;;;;;6246849;23;20004;-79
2023/05/25 07:43:51;;;;;;;3.60;1.80;;;23.80;69.40;;;;;;6219453;23;20007;-79
2023/05/25 07:46:16;;;;;;;1.98;1.75;;;23.90;69.20;;;;;;6246518;23;20008;-80
2023/05/25 07:48:42;;;;;;;1.80;1.70;;;23.90;69.50;;;;;;6246085;23;20496;-79
2023/05/25 07:51:08;;;;;;;2.67;1.83;;;24.00;70.10;;;;;;6219292;23;20004;-80
2023/05/25 07:53:35;;;;;;;2.88;1.88;;;24.10;69.40;;;;;;6246104;23;20004;-79
2023/05/25 07:56:00;;;;;;;2.97;1.90;;;24.20;68.90;;;;;;6246542;23;20054;-80
2023/05/25 07:58:26;;;;;;;3.50;1.90;;;24.30;69.50;;;;;;6219325;23;20419;-79
2023/05/25 08:00:52;;;;;;;3.08;2.40;;;24.50;69.00;;;;;;6246095;23;20087;-79
2023/05/25 08:03:18;;;;;;;3.55;2.05;;;24.50;68.00;;;;;;6244674;23;19997;-79
2023/05/25 08:05:43;;;;;;;2.42;2.05;;;24.60;67.90;;;;;;6246582;23;20008;-79
2023/05/25 08:08:09;;;;;;;3.13;2.10;;;24.70;67.90;;;;;;6245999;23;20054;-79
2023/05/25 08:10:35;;;;;;;2.50;2.15;;;24.80;67.80;;;;;;6245968;23;20323;-79
2023/05/25 08:13:00;;;;;;;3.50;2.00;;;24.80;67.60;;;;;;6246781;23;20016;-80
2023/05/25 08:15:26;;;;;;;2.72;1.90;;;24.90;67.70;;;;;;6247164;23;20000;-79
2023/05/25 08:17:52;;;;;;;2.35;2.15;;;25.00;67.20;;;;;;6246884;23;20024;-78
2023/05/25 08:20:18;;;;;;;3.97;2.47;;;25.00;67.00;;;;;;6244695;23;20339;-78
2023/05/25 08:22:44;;;;;;;2.70;2.20;;;24.90;65.70;;;;;;6245695;23;20403;-78
2023/05/25 08:25:10;;;;;;;4.20;2.42;;;24.90;66.90;;;;;;6245957;23;20000;-78
2023/05/25 08:27:36;;;;;;;2.22;2.03;;;25.00;67.50;;;;;;6245516;23;20035;-78
2023/05/25 08:30:04;;;;;;;3.30;1.73;;;25.10;67.00;;;;;;6246724;23;20019;-78
2023/05/25 08:32:30;;;;;;;3.38;1.88;;;25.10;66.40;;;;;;6245367;23;20007;-80
2023/05/25 08:34:56;;;;;;;4.07;2.97;;;25.20;67.00;;;;;;6246338;23;20008;-78
2023/05/25 08:37:23;;;;;;;4.45;1.80;;;25.20;64.70;;;;;;6245107;23;20012;-78
2023/05/25 08:39:51;;;;;;;3.10;1.88;;;25.10;65.50;;;;;;6219686;23;20067;-80
2023/05/25 08:42:16;;;;;;;3.83;2.92;;;25.10;66.40;;;;;;6245496;23;19997;-79
2023/05/25 08:44:42;;;;;;;2.50;2.20;;;25.20;66.30;;;;;;6242960;23;20011;-79
2023/05/25 08:47:10;;;;;;;2.72;2.03;;;25.30;66.20;;;;;;6245399;23;20007;-80
2023/05/25 08:49:40;;;;;;;6.13;2.50;;;25.30;66.50;;;;;;6244926;23;20000;-78
2023/05/25 08:52:12;;;;;;;2.65;1.88;;;25.40;65.00;;;;;;6245643;23;20007;-78
2023/05/25 08:54:41;;;;;;;3.55;1.90;;;25.40;66.10;;;;;;6246163;23;20435;-79
2023/05/25 08:57:24;;;;;;;5.20;2.58;;;25.50;66.50;;;;;;6219154;23;20004;-79
2023/05/25 09:00:10;;;;;;;2.30;1.80;;;25.50;65.20;;;;;;6246736;23;20003;-78
2023/05/25 09:02:44;;;;;;;3.40;2.20;;;25.50;66.30;;;;;;6246261;23;20049;-79
2023/05/25 09:05:09;;;;;;;2.88;2.40;;;25.60;66.50;;;;;;6247469;23;19996;-78
2023/05/25 09:07:35;;;;;;;5.50;1.83;;;25.70;65.90;;;;;;6247591;23;20030;-80
2023/05/25 09:10:02;;;;;;;2.65;2.17;;;25.80;66.30;;;;;;6246699;23;20004;-78
2023/05/25 09:12:30;;;;;;;3.58;2.75;;;25.90;65.90;;;;;;6258890;23;20004;-79
2023/05/25 09:15:00;;;;;;;2.67;2.08;;;26.00;65.20;;;;;;6246836;23;20398;-79
2023/05/25 09:17:29;;;;;;;2.15;1.92;;;26.00;65.20;;;;;;6244954;23;20072;-85
2023/05/25 09:19:59;;;;;;;2.50;2.08;;;26.10;65.40;;;;;;6243767;23;20057;-84
2023/05/25 09:22:25;;;;;;;2.83;2.13;;;26.20;65.10;;;;;;6244408;23;20008;-84
2023/05/25 09:24:54;;;;;;;4.13;2.72;;;26.30;64.80;;;;;;6246193;23;20004;-79
2023/05/25 09:27:22;;;;;;;3.63;2.03;;;26.30;62.90;;;;;;6231261;23;20018;-83
2023/05/25 09:29:49;;;;;;;4.82;2.60;;;26.30;64.40;;;;;;6239639;23;20782;-79
2023/05/25 09:32:17;;;;;;;3.20;2.13;;;26.40;63.10;;;;;;6245305;23;20007;-83
2023/05/25 09:34:44;;;;;;;2.17;1.90;;;26.50;64.30;;;;;;6245330;23;20007;-83
2023/05/25 09:37:17;;;;;;;4.93;2.20;;;26.60;64.30;;;;;;6245597;23;20442;-84
2023/05/25 09:39:44;;;;;;;2.38;2.13;;;26.80;63.80;;;;;;6245219;23;20075;-83
2023/05/25 09:42:10;;;;;;;2.72;2.28;;;26.90;64.10;;;;;;6244720;23;19992;-84
2023/05/25 09:44:36;;;;;;;3.47;2.45;;;27.10;63.60;;;;;;6244615;23;20008;-83
2023/05/25 09:47:03;;;;;;;4.15;2.10;;;27.20;63.70;;;;;;6246111;23;20008;-79
2023/05/25 09:49:29;;;;;;;2.85;2.00;;;27.30;63.70;;;;;;6245808;23;20010;-79
2023/05/25 09:51:55;;;;;;;2.38;1.90;;;27.50;63.40;;;;;;6219299;23;20087;-79
2023/05/25 09:54:21;;;;;;;6.03;2.70;;;27.70;63.00;;;;;;6244872;23;20004;-79
2023/05/25 09:56:47;;;;;;;9.73;3.30;;;27.80;61.40;;;;;;6218116;23;20020;-79
2023/05/25 09:59:13;;;;;;;5.30;2.63;;;27.80;60.80;;;;;;6245061;23;20005;-78
2023/05/25 10:01:39;;;;;;;3.95;2.60;;;27.90;61.70;;;;;;6245910;23;20003;-78
2023/05/25 10:04:05;;;;;;;3.85;2.88;;;28.00;61.80;;;;;;6246062;23;20083;-78
2023/05/25 10:06:32;;;;;;;6.03;2.80;;;28.10;61.40;;;;;;6246890;23;20027;-79
2023/05/25 10:08:59;;;;;;;2.83;2.42;;;28.10;59.40;;;;;;6247226;23;20004;-79
2023/05/25 10:11:26;;;;;;;5.13;2.78;;;27.90;59.40;;;;;;6246839;23;20418;-78
2023/05/25 10:13:54;;;;;;;3.83;2.72;;;27.80;58.40;;;;;;6247480;23;20027;-78
2023/05/25 10:16:28;;;;;;;4.82;3.08;;;27.80;60.20;;;;;;6247823;23;20068;-78
2023/05/25 10:19:20;;;;;;;3.33;2.72;;;27.80;58.50;;;;;;6246972;23;20007;-78
2023/05/25 10:21:54;;;;;;;3.10;2.30;;;27.60;60.10;;;;;;6246380;23;20008;-78
2023/05/25 10:24:43;;;;;;;5.38;2.78;;;27.80;60.00;;;;;;6246900;23;20382;-77
2023/05/25 10:27:14;;;;;;;5.38;2.92;;;27.80;58.50;;;;;;6246171;23;20011;-78
2023/05/25 10:29:41;;;;;;;4.30;3.10;;;27.80;58.50;;;;;;6246139;23;20458;-78
2023/05/25 10:32:08;;;;;;;4.93;3.33;;;27.70;57.90;;;;;;6246948;23;20488;-85
2023/05/25 10:34:34;;;;;;;3.90;2.38;;;27.70;58.20;;;;;;6248313;23;20066;-85
2023/05/25 10:37:02;;;;;;;2.97;2.33;;;27.70;58.80;;;;;;6248257;23;20607;-86
2023/05/25 10:39:28;;;;;;;2.80;2.33;;;27.70;58.80;;;;;;6221133;23;20091;-86
2023/05/25 10:41:54;;;;;;;7.75;3.47;;;27.90;59.70;;;;;;6247161;23;19996;-86
2023/05/25 10:44:20;;;;;;;2.40;2.10;;;28.10;56.80;;;;;;6247716;23;20003;-86
2023/05/25 10:46:47;;;;;;;3.05;2.40;;;28.10;58.20;;;;;;6247523;23;20095;-79
2023/05/25 10:49:13;;;;;;;2.28;2.00;;;28.20;58.70;;;;;;6243108;23;20086;-79
2023/05/25 10:51:40;;;;;;;4.40;2.25;;;28.30;59.10;;;;;;6245037;23;20435;-79
2023/05/25 10:54:06;;;;;;;2.20;2.00;;;28.50;58.90;;;;;;6246622;22;20418;-79
2023/05/25 10:56:32;;;;;;;2.20;1.75;;;28.60;58.00;;;;;;6244623;23;20016;-79
2023/05/25 10:58:59;;;;;;;3.38;2.40;;;28.80;58.50;;;;;;6245054;23;20084;-78
2023/05/25 11:01:25;;;;;;;3.78;2.50;;;28.90;58.10;;;;;;6246012;23;20097;-79
2023/05/25 11:04:09;;;;;;;3.05;2.13;;;28.80;55.50;;;;;;6244772;23;20011;-78
2023/05/25 11:06:43;;;;;;;3.08;2.10;;;28.70;56.50;;;;;;6246730;23;20075;-78
2023/05/25 11:09:23;;;;;;;2.40;2.20;;;28.90;57.30;;;;;;6246392;23;20292;-78
2023/05/25 11:11:50;;;;;;;2.70;2.20;;;29.20;55.60;;;;;;6246989;23;20007;-79
2023/05/25 11:14:26;;;;;;;2.47;1.95;;;29.30;56.80;;;;;;6219035;23;20098;-78
2023/05/25 11:17:12;;;;;;;3.45;2.08;;;29.60;55.20;;;;;;6245219;23;20318;-79
2023/05/25 11:19:42;;;;;;;4.72;2.20;;;29.80;56.40;;;;;;6246458;23;20370;-79
2023/05/25 11:22:19;;;;;;;2.35;2.03;;;29.90;56.50;;;;;;6246281;23;20000;-80
2023/05/25 11:24:46;;;;;;;2.28;1.88;;;30.10;56.30;;;;;;6247346;23;20023;-80
2023/05/25 11:27:12;;;;;;;3.33;2.10;;;30.30;56.90;;;;;;6246794;23;20020;-78
2023/05/25 11:29:39;;;;;;;1.70;1.60;;;30.70;57.00;;;;;;6245225;23;20016;-80
2023/05/25 11:32:14;;;;;;;3.20;2.00;;;31.10;56.70;;;;;;6246795;23;20058;-78
2023/05/25 11:34:45;;;;;;;3.25;1.92;;;31.60;54.90;;;;;;6246207;23;20435;-78
2023/05/25 11:37:12;;;;;;;6.97;2.03;;;31.80;54.40;;;;;;6245386;23;20004;-78
2023/05/25 11:39:38;;;;;;;2.97;2.30;;;32.10;54.30;;;;;;6247220;23;20000;-85
2023/05/25 11:42:06;;;;;;;2.17;1.95;;;32.40;53.50;;;;;;6246697;23;20046;-84
2023/05/25 11:44:36;;;;;;;3.13;2.45;;;32.70;53.20;;;;;;6245614;23;20012;-79
2023/05/25 11:47:13;;;;;;;5.18;2.30;;;32.70;52.70;;;;;;6245254;23;20008;-84
2023/05/25 11:49:44;;;;;;;7.38;2.72;;;32.70;52.30;;;;;;6247594;23;20004;-84
2023/05/25 11:52:12;;;;;;;2.53;2.30;;;32.90;52.10;;;;;;6246285;23;20042;-86
2023/05/25 11:54:41;;;;;;;3.42;2.30;;;33.20;52.10;;;;;;6243723;23;20035;-78
2023/05/25 11:57:16;;;;;;;4.20;2.10;;;33.40;51.70;;;;;;6240193;23;20012;-79
2023/05/25 11:59:50;;;;;;;1.98;1.75;;;33.60;51.00;;;;;;6215564;23;20304;-85
2023/05/25 12:02:16;;;;;;;2.85;2.28;;;33.80;51.10;;;;;;6243865;23;20004;-80
2023/05/25 12:05:00;;;;;;;3.65;2.17;;;34.00;50.80;;;;;;6242731;23;20431;-85
2023/05/25 12:07:28;;;;;;;2.40;2.10;;;34.10;48.90;;;;;;6243004;23;20004;-86
2023/05/25 12:10:15;;;;;;;2.47;2.25;;;34.20;49.80;;;;;;6245767;23;20057;-85
2023/05/25 12:12:49;;;;;;;1.92;1.73;;;34.30;47.80;;;;;;6243782;23;20100;-84
2023/05/25 12:15:19;;;;;;;2.13;1.70;;;34.30;48.80;;;;;;6238621;23;20460;-85
2023/05/25 12:17:46;;;;;;;3.47;2.50;;;34.40;48.90;;;;;;6246049;23;20008;-83
2023/05/25 12:20:14;;;;;;;3.95;2.03;;;34.50;48.80;;;;;;6246042;23;20361;-84
2023/05/25 12:22:41;;;;;;;3.08;1.90;;;34.60;48.80;;;;;;6247283;23;20067;-84
2023/05/25 12:25:09;;;;;;;2.33;1.88;;;34.70;48.60;;;;;;6219211;23;20361;-85
2023/05/25 12:27:35;;;;;;;4.07;2.30;;;34.80;48.50;;;;;;6246704;23;20462;-85
2023/05/25 12:30:01;;;;;;;3.50;1.80;;;34.90;48.10;;;;;;6245802;23;20016;-83
2023/05/25 12:32:27;;;;;;;4.25;2.20;;;35.00;48.00;;;;;;6245700;23;20059;-83
2023/05/25 12:35:04;;;;;;;6.03;2.38;;;35.00;47.90;;;;;;6245792;23;20082;-85
2023/05/25 12:37:30;;;;;;;4.63;2.30;;;35.00;46.60;;;;;;6244875;23;20431;-85
2023/05/25 12:39:56;;;;;;;2.83;1.80;;;35.00;47.00;;;;;;6244714;23;20006;-85
2023/05/25 12:42:25;;;;;;;6.85;2.03;;;34.90;46.70;;;;;;6245156;23;20075;-78
2023/05/25 12:44:54;;;;;;;3.27;2.13;;;35.00;46.70;;;;;;6246334;23;20053;-78
2023/05/25 12:47:23;;;;;;;4.27;2.30;;;35.00;46.80;;;;;;6233267;23;20235;-78
2023/05/25 12:49:50;;;;;;;;;;;35.00;46.90;;;;;;6246573;23;20219;-78